ACT        NSW        VIC        QLD        SA        WA        TAS        NT        INFO        CALC            by VK5ZD

Past Date/Time: (dd/mm/yyyy hh:mm or blank for current data)    

  Atmospheric Gas Attenuation - ITU Rec 676-11   --------------- dB/100km ---------------
WA Stations Date Time Temp RH % AH g/m3 Dew Point Wind Direction Speed kph Gust kph Barometer mB Rainfall Since 9am 24GHz 47GHz 76GHz 122GHz 134GHz 241GHz
Albany 05/05 09:00 15.1 85 10.97 12.7 7 1013.1 0 24.6 29.4 48.9 128.8 128.8 445.1
Albany Airport 05/05 15:30 15 83 10.64 12.1 9 15 1028.2 0 23.9 29.5 48.3 127.0 125.9 434.5
Badgingarra 05/05 15:30 23.5 33 6.98 6.3 11 19 1013.1 0 15.8 21.0 29.8 77.7 68.8 235.8
Barimunya 05/05 15:30 23.8 17 3.66 -2.7 24 30 1016.8 0 8.9 16.9 19.5 50.3 34.8 116.0
Barrow Island 05/05 15:30 27 38 9.78 11.5 24 28 1014.8 0 21.4 24.1 37.9 99.6 96.8 334.3
Bedout Island 05/05 15:30 27.9 31 8.38 9.2 13 15 1013.5 0 18.5 21.9 32.7 85.8 80.0 275.8
Beverley 05/05 09:00 12.2 95 10.25 11.4 4 1013.1 0 23.2 29.2 47.6 125.2 123.4 425.7
Bickley 05/05 15:30 20.5 48 8.54 9.1 7 17 1013.1 0 19.1 23.9 36.4 95.4 89.6 308.6
Boolgeeda 05/05 15:30 27.6 9 2.39 -8 11 17 1014.1 0 6.2 14.8 15.2 38.8 21.9 70.9
Bridgetown 05/05 15:30 18.9 54 8.75 9.4 6 9 1026.7 0.2 19.6 25.2 38.5 100.8 95.1 327.5
Brookton 05/05 09:00 13.8 76 9.06 9.6 0 1013.1 0.1 20.6 26.6 41.7 109.4 104.5 359.9
Broome 05/05 15:30 30.8 34 10.77 13.1 20 26 1011.4 0 23.3 24.4 39.4 103.7 103.0 356.8
Bulga Downs 05/05 09:00 15.1 61 7.87 7.8 9 1026.4 0 18.0 24.9 36.9 96.5 88.4 303.5
Bunbury 05/05 15:30 20.8 53 9.6 10.9 9 15 1026 0 21.3 25.9 40.7 106.9 103.3 356.4
Busselton Airport 05/05 15:30 20.6 51 9.13 10.1 9 15 1025.9 0.2 20.4 25.3 39.1 102.4 97.7 336.7
Cape Leeuwin 05/05 15:30 18.2 58 9.01 9.8 24 32 1027.4 0 20.2 25.8 39.8 104.4 99.3 342.1
Cape Naturaliste 05/05 15:30 20.4 58 10.26 11.9 7 9 1026.1 0 22.8 27.1 43.5 114.3 112.2 387.7
Carnarvon 05/05 15:30 28.4 36 10.01 11.9 15 20 1016.6 0 21.8 24.1 38.2 100.2 97.8 338.3
Christmas Creek 05/05 15:30 25.4 16 3.77 -2.2 20 30 1017.1 0 9.0 16.7 19.5 50.2 35.1 117.6
Christmas Island 05/05 15:30 27.6 85 22.61 24.8 19 26 1009.1 0 48.4 45.5 91.5 242.4 272.5 947.0
Cocos Island 05/05 15:30 28.6 94 26.42 27.5 17 26 1009.2 51.4 56.3 52.8 109.8 291.0 332.4 1154.9
Collie East 05/05 15:30 21.2 48 8.89 9.8 6 11 1013.1 0.2 19.8 24.3 37.3 98.0 93.0 320.6
Coondewanna 05/05 15:30 24.4 16 3.56 -3 19 28 1016.6 0 8.6 16.6 19.1 49.1 33.6 111.9
Corrigin 05/05 09:00 10.5 87 8.44 8.5 19 1028.4 0 19.4 27.2 41.5 108.8 101.8 349.6
Cunderdin Airport 05/05 15:30 22.2 37 7.26 6.8 13 20 1025.1 0 16.4 22.1 31.6 82.6 73.8 253.1
Curtin 05/05 15:30 33.8 30 11.14 13.8 17 22 1009.5 0 23.9 24.0 39.2 103.1 103.2 357.6
Dalwallinu 05/05 15:30 23.3 24 5.02 1.6 17 24 1023.2 0 11.7 18.8 23.9 61.9 48.7 165.1
Donnybrook 05/05 09:00 10 100 9.4 10 17 1013.1 0 21.5 28.4 45.2 118.8 114.7 394.9
Doongan 05/05 09:00 28 60 16.32 19.7 9 1013.1 23 35.0 33.9 62.5 165.1 177.6 617.0
Dwellingup 05/05 15:30 20.2 51 8.92 9.7 11 15 1025.9 0 19.9 25.0 38.5 100.8 95.6 329.3
Eliwana Airport 05/05 15:30 28.5 14 3.91 -1.6 19 32 1013.1 0 9.3 16.3 19.1 49.2 35.0 117.5
Esperance 05/05 15:30 16.6 83 11.72 13.7 17 28 1027.6 0 26.1 30.8 51.9 136.6 138.4 478.4
Esperance Airport 05/05 15:30 16.8 73 10.44 11.9 20 24 1027.4 0 23.3 28.5 46.3 121.7 120.1 414.8
Eucla 05/05 15:30 17.6 68 10.2 11.6 13 19 1025.5 0.2 22.8 27.8 44.8 117.7 115.5 398.7
Eyre 05/05 06:00 12.5 99 10.89 12.3 0 1026.6 0 24.6 30.7 50.9 133.9 133.6 461.1
Fitzroy Crossing 05/05 15:30 34.1 35 13.21 16.5 1009.5 0 28.1 26.8 46.1 121.7 126.1 437.8
Forrest 05/05 15:30 19.5 49 8.22 8.5 11 17 1025 0 18.5 24.2 36.1 94.6 87.7 301.8
Fortescue Dave Forrest 05/05 15:30 25.2 18 4.19 -0.8 22 30 1016.7 0 9.9 17.3 20.7 53.5 39.2 131.9
Garden Island 05/05 15:30 19.2 71 11.71 13.8 24 28 1025.5 0 25.9 29.8 50.1 131.8 133.4 461.4
Geraldton Airport 05/05 15:30 27.8 20 5.38 2.8 17 26 1020.7 0 12.3 18.3 23.6 61.4 49.6 168.6
Gerangamete (Cfa) 05/05 17:20 12.9 77 8.68 9 9 13 1013.1 0 19.8 26.3 40.6 106.5 100.6 346.1
Giles* 05/05 17:00 23.6 27 5.74 3.5 15 22 1019 0 13.2 19.5 25.9 67.4 55.8 190.1
Gingin Airport 05/05 15:30 23.5 36 7.61 7.6 13 20 1024.3 0 17.1 22.2 32.3 84.4 76.5 262.7
Golden Grove 05/05 15:30 23.3 29 6.06 4.3 19 26 1022.1 0 13.8 20.1 27.1 70.6 59.5 203.2
Goomalling 05/05 09:00 16.5 65 9.13 9.9 0 1013.1 0 20.6 26.0 40.5 106.5 101.8 350.9
Gooseberry Hill 05/05 15:30 21.8 43 8.25 8.7 7 13 1013.1 0 18.5 23.2 34.8 91.1 84.8 291.7
Gudai-Darri Mine 05/05 15:30 25.4 17 4 -1.4 19 30 1013.1 0 9.5 16.9 20.0 51.7 37.2 124.8
Halls Creek 05/05 17:00 30.9 39 12.42 15.7 17 22 1011 0 26.7 26.7 45.2 119.1 121.9 423.0
Hopetoun North 05/05 15:30 18 60 9.21 10.1 15 20 1027 0 20.7 26.2 40.7 106.7 102.1 351.8
Hyden 05/05 09:00 10.3 89 8.53 8.5 9 1013.1 0 19.6 26.8 41.3 108.4 102.0 350.6
Iron Bridge Mine 05/05 15:30 28.9 9 2.57 -7.1 17 28 1014.7 0 6.5 14.8 15.4 39.5 23.1 75.3
Jacup 05/05 15:30 17.2 54 7.91 7.8 9 15 1027.1 0 18.0 24.4 36.1 94.4 86.6 297.5
Jandakot 05/05 15:30 21.7 54 10.3 12 19 22 1024.9 0 22.8 26.7 42.9 112.7 110.8 382.8
Jarrahwood 05/05 09:00 10 100 9.4 10 4 1013.1 0 21.5 28.4 45.2 118.8 114.7 394.9
Jurien Bay 05/05 09:00 16.5 66 9.27 10.2 15 1024.7 0 20.9 26.6 41.6 109.2 104.7 360.6
Kalbarri 05/05 09:00 20.6 36 6.44 5 20 1021.6 0 14.7 21.2 29.3 76.3 65.7 224.6
Kalgoorlie-Boulder 05/05 15:30 19.8 46 7.86 7.9 13 17 1025.1 0 17.7 23.5 34.7 90.8 83.1 285.5
Kalumburu 05/05 17:00 32.1 62 21.05 23.9 13 20 1009.6 0 44.5 40.3 79.1 209.5 233.4 811.6
Karijini North 05/05 15:30 27.3 13 3.4 -3.5 13 24 1015.7 0 8.2 16.0 18.0 46.3 30.9 102.9
Karnet 05/05 15:00 20.7 49 8.82 9.6 2 1013.1 0 19.7 24.3 37.3 97.9 92.8 319.6
Karratha 05/05 15:30 28.2 28 7.7 8 24 32 1014.5 0 17.1 21.0 30.5 79.7 72.5 249.5
Katanning Rs 05/05 15:30 18.3 50 7.82 7.7 7 11 1027 0.2 17.7 23.9 35.3 92.2 84.3 289.6
Koolan Island / Koolan Central 05/05 15:30 31.1 42 13.52 17 6 9 1013.1 0 28.9 28.3 49.2 129.7 135.1 468.8
Kununurra Airport 05/05 17:00 33.8 42 15.6 19.1 15 20 1010.4 0 33.0 30.5 55.1 145.7 155.5 540.4
Lake Grace 05/05 15:30 19.3 50 8.29 8.6 11 19 1026.4 0 18.7 24.4 36.6 95.7 88.9 305.9
Lancelin (Defence) 05/05 15:30 21.2 71 13.16 15.7 19 26 1023.6 0 28.8 31.5 54.8 144.3 149.6 518.2
Laverton 05/05 15:30 19.2 46 7.58 7.3 17 28 1023.7 0 17.2 23.2 33.9 88.6 80.3 275.5
Learmonth 05/05 15:30 28 39 10.61 12.8 15 20 1015.9 0 23.1 25.1 40.4 106.3 105.2 364.1
Legendre Island 05/05 15:30 27.7 33 8.83 10 20 26 1014.9 0 19.4 22.6 34.4 90.1 85.3 294.1
Leinster 05/05 15:30 20 38 6.57 5.3 17 24 1021.7 0 15.0 21.5 29.9 78.1 67.7 231.4
Leonora Airport 05/05 15:30 20 36 6.22 4.5 17 30 1023.5 0 14.3 21.1 28.8 75.0 63.8 217.9
Lombadina 05/05 15:30 31.1 42 13.52 16.7 11 15 1010.6 0 28.9 28.2 49.1 129.5 134.8 467.9
Mandora 05/05 15:30 32 13 4.39 0.2 13 22 1012.8 0 10.1 16.2 19.6 50.6 37.8 127.8
Mandurah 05/05 15:30 19.4 58 9.68 10.9 13 19 1025.5 0 21.6 26.4 41.8 109.6 106.1 366.2
Manjimup 05/05 15:30 17.3 61 8.99 9.7 13 20 1027.3 0.2 20.2 26.0 40.2 105.4 100.2 345.0
Marble Bar 05/05 15:30 29.1 9 2.6 -7 17 26 1014.8 0 6.6 14.8 15.5 39.6 23.3 76.1
Mardie 05/05 15:30 31 26 8.32 9.3 11 20 1014.3 0 18.2 21.1 31.4 82.2 76.5 263.7
Meekatharra 05/05 15:30 23.2 25 5.2 2.1 20 33 1020.4 0 12.1 19.0 24.4 63.3 50.5 171.4
Millendon (Swan Valley) 05/05 15:30 23.5 37 7.82 8 7 13 1024.3 0 17.5 22.5 33.0 86.3 78.8 271.1
Morawa Airport 05/05 15:30 25.7 24 5.75 3.6 11 19 1022.3 0 13.1 19.2 25.4 66.1 54.6 186.3
Mount Keith 05/05 15:30 20.5 33 5.87 3.7 19 26 1021.7 0 13.5 20.5 27.4 71.3 59.5 202.7
Mount Magnet Airport 05/05 15:30 23.1 28 5.79 3.6 19 28 1021.4 0 13.3 19.8 26.3 68.4 56.8 193.5
Mullewa 05/05 09:00 16.1 53 7.26 6.7 19 1013.1 0 16.6 23.2 33.6 87.9 78.8 270.1
Munglinup West 05/05 15:30 17.4 59 8.74 9.3 11 20 1027.1 0.2 19.7 25.6 39.2 102.7 96.8 333.3
Murchison 05/05 09:00 20.4 78 13.8 16.5 28 1022.7 0 30.3 32.9 58.1 153.1 160.2 555.0
Narrogin 05/05 09:00 12.5 82 9.02 9.6 2 1013.1 0 20.6 27.0 42.2 110.8 105.7 364.0
Newdegate 05/05 15:30 19.3 48 7.96 8 6 13 1026.1 0 18.0 23.9 35.3 92.4 84.9 291.7
Newman Airport 05/05 15:30 23.6 22 4.68 0.7 15 26 1017.3 0 11.0 18.2 22.6 58.5 44.9 151.6
Norseman Airport 05/05 15:30 16 66 8.99 9.7 13 20 1026.9 0 20.3 26.4 40.9 107.1 101.8 350.6
North Island 05/05 15:30 24.8 47 10.7 13 26 32 1020.4 0 23.4 26.2 42.6 111.9 111.0 384.0
Northam 05/05 09:00 12.4 81 8.85 9.3 0 1013.1 0 20.2 26.7 41.5 109.1 103.6 356.4
Onslow Airport 05/05 15:30 28.8 33 9.38 10.9 20 26 1015.7 0 20.5 23.1 35.8 93.9 90.2 311.6
Paraburdoo 05/05 15:30 27.1 13 3.36 -3.7 15 20 1015.9 0 8.2 16.0 17.9 46.1 30.7 101.9
Paynes Find 05/05 09:00 16.3 59 8.19 8.3 7 1025.7 0 18.6 25.0 37.5 98.2 91.0 312.9
Pearce 05/05 15:30 23.9 35 7.57 7.5 15 17 1024 0 17.0 22.1 32.0 83.6 75.6 259.8
Perth 05/05 15:30 22.7 47 9.5 10.8 11 19 1024.6 0 21.0 25.2 39.4 103.3 99.5 343.4
Perth Airport 05/05 15:30 24 40 8.7 9.6 15 17 1024.5 0 19.3 23.7 35.9 94.0 88.5 304.8
Port Hedland 05/05 15:30 30.7 10 3.15 -4.4 17 26 1013.9 0 7.7 15.1 16.6 42.6 27.5 91.2
Portable Btsa (Dfes) 05/05 15:20 29.6 14 4.16 0 17 19 1013.1 0 9.7 16.4 19.5 50.4 36.8 124.0
Portable Btsb (Dfes) 05/05 15:20 21 41 7.51 7.2 4 7 1013.1 0 17.0 22.3 32.5 85.0 77.0 264.3
Portable Btsd (Dfes) 05/05 15:20 21.1 41 7.55 7.3 9 13 1013.1 0 17.0 22.4 32.6 85.3 77.3 265.6
Portable Btsf (Dfes) 05/05 14:00 20.7 34 6.12 4.6 24 32 1013.1 0 14.1 20.5 27.9 72.7 61.6 210.3
Portable Btsh (Dfes) 05/05 15:20 16 84 11.44 13.3 9 11 1013.1 0.2 25.5 30.0 50.4 132.6 133.9 463.0
Portable Btsj (Dfes) 05/05 15:20 21.7 46 8.77 9.7 15 17 1013.1 0 19.6 24.0 36.7 96.2 91.0 313.6
Portable Btsk (Dfes) 05/05 15:20 32.9 20 7.08 7.1 4 6 1013.1 0 15.6 19.2 26.9 70.3 62.4 214.2
Portable Btsl (Dfes) 05/05 15:20 20.3 47 8.27 8.7 19 24 1013.1 0 18.6 23.6 35.5 93.0 86.6 298.0
Portable Btsm (Dfes) 05/05 15:20 24 23 5 1.8 6 9 1013.1 0 11.6 18.4 23.3 60.5 47.7 161.6
Portable Btsn (Dfes) 05/05 15:20 21.7 31 5.91 3.9 15 20 1013.1 0 13.6 20.0 26.9 70.0 58.6 199.8
Portable Btso (Dfes) 05/05 15:20 22.7 39 7.88 8.1 2 4 1013.1 0 17.7 22.4 33.1 86.7 79.6 273.6
Ravensthorpe 05/05 09:00 11.9 88 9.32 10 6 1029 0 21.2 28.3 44.5 116.8 112.2 386.2
Red Rocks Point 05/05 15:30 17.2 83 12.15 14.3 9 13 1026 0 27.0 31.3 53.3 140.3 143.2 495.5
Rocky Gully South 05/05 15:30 16.1 59 8.09 8.1 11 28 1013.1 0 18.4 24.4 36.7 96.2 89.1 306.1
Roebourne Airport 05/05 15:30 30.6 16 5.01 1.9 20 35 1014.8 0 11.4 17.2 21.7 56.2 44.2 150.1
Rottnest Island 05/05 15:30 19.2 64 10.55 12.2 20 24 1025 0 23.4 27.9 45.3 119.0 117.7 406.6
Salmon Gums Rs 05/05 15:30 16.4 65 9.07 9.8 6 9 1013.1 0 20.5 25.9 40.3 106.0 101.2 348.6
Shannon 05/05 15:30 16.1 65 8.91 9.5 4 9 1013.1 0 20.1 25.7 39.9 104.7 99.5 342.7
Shark Bay Airport 05/05 15:30 28 18 4.9 1.5 20 30 1017.7 0 11.3 17.6 22.1 57.3 44.7 151.4
Solomon Airport 05/05 15:30 27.2 11 2.86 -5.8 9 24 1015.1 0 7.1 15.4 16.5 42.4 26.1 85.9
Southern Cross Airport 05/05 15:30 21.4 39 7.31 6.9 6 15 1024.9 0.2 16.5 22.3 32.1 83.8 75.1 257.5
Swanbourne 05/05 15:30 19.6 83 14.01 16.6 17 24 1013.1 0 30.8 33.2 59.1 155.9 163.7 567.5
Telfer 05/05 15:30 27.4 15 3.95 -1.5 24 35 1014.7 0 9.4 16.5 19.5 50.2 35.9 120.5
Thevenard Island 05/05 15:30 28 35 9.52 11.1 20 24 1015.5 0 20.8 23.5 36.6 96.1 92.7 320.1
Troughton Island 05/05 17:00 31.1 63 20.28 23.2 13 20 1010.1 0 43.0 39.4 76.7 203.1 225.2 783.1
Truscott 05/05 17:00 30.1 70 21.35 24 17 24 1009.6 0 45.4 41.8 82.6 218.7 244.2 848.9
Wagin 05/05 09:00 12.7 77 8.57 8.8 4 1013.1 0.2 19.6 26.2 40.2 105.6 99.4 341.8
Walpole North 05/05 15:30 16 76 10.35 11.8 9 15 1027.7 0 23.2 28.7 46.4 122.0 120.2 414.8
Wandering 05/05 15:30 20.9 43 7.83 7.9 11 17 1013.1 0 17.6 22.8 33.7 88.2 80.8 277.6
Warburton 05/05 15:30 21.4 28 5.25 2.2 15 22 1020.8 0.6 12.2 19.4 25.1 65.1 52.2 177.1
West Angelas 05/05 15:30 23.8 18 3.87 -1.9 11 20 1015.9 1.8 9.3 17.1 20.1 51.8 36.7 123.1
West Musgrave Airport 05/05 15:30 22.1 25 4.88 1.2 17 28 1013.1 0 11.4 18.6 23.5 60.9 47.5 160.9
Wiluna Airport 05/05 15:30 21.5 31 5.85 3.7 20 28 1021 0 13.5 20.2 27.0 70.2 58.5 199.4
Windy Harbour 05/05 09:00 13.5 88 10.29 11.6 7 1029.1 0.2 23.2 29.4 47.8 125.5 123.4 425.8
Witchcliffe West 05/05 15:30 17.8 70 10.62 12.3 15 22 1026.8 0 23.7 28.5 46.5 122.1 121.0 417.8
Wongan Hills 05/05 09:00 15.1 77 9.93 11.2 28 1026.4 0 22.3 28.2 45.2 118.6 115.7 398.9
Wyndham Airport 05/05 17:00 34.7 38 14.8 18.7 13 20 1009.7 0 31.3 29.0 51.5 136.0 143.9 500.1
Yampi Sound (Defence) 05/05 15:30 34.6 35 13.56 16.9 7 11 1013.4 0 28.8 27.3 47.3 124.7 129.7 450.6
York 05/05 09:00 10 97 9.12 9.6 0 1028 0 20.9 28.5 44.7 117.3 112.0 385.5

Last Refresh: 05-May-2026 17:06:50

Bureau of Meteorology